sensor_id;sensor_type;location;lat;lon;timestamp;pressure;altitude;pressure_sealevel;temperature;humidity
60646;BME280;46462;32.608;-117.032;2023-01-16T00:02:09;99053.02;;;21.76;46.55
60646;BME280;46462;32.608;-117.032;2023-01-16T00:04:39;99056.17;;;21.76;46.50
60646;BME280;46462;32.608;-117.032;2023-01-16T00:07:09;99053.26;;;21.75;46.46
60646;BME280;46462;32.608;-117.032;2023-01-16T00:09:39;99048.69;;;21.70;46.59
60646;BME280;46462;32.608;-117.032;2023-01-16T00:12:09;99045.51;;;21.72;46.58
60646;BME280;46462;32.608;-117.032;2023-01-16T00:14:39;99037.71;;;21.70;46.68
60646;BME280;46462;32.608;-117.032;2023-01-16T00:17:10;99034.99;;;21.70;46.63
60646;BME280;46462;32.608;-117.032;2023-01-16T00:19:40;99044.64;;;21.64;46.79
60646;BME280;46462;32.608;-117.032;2023-01-16T00:22:10;99047.02;;;21.64;46.84
60646;BME280;46462;32.608;-117.032;2023-01-16T00:24:40;99051.00;;;21.61;46.87
60646;BME280;46462;32.608;-117.032;2023-01-16T00:27:11;99059.25;;;21.60;46.95
60646;BME280;46462;32.608;-117.032;2023-01-16T00:29:41;99056.23;;;21.57;47.01
60646;BME280;46462;32.608;-117.032;2023-01-16T00:32:11;99047.06;;;21.59;46.98
60646;BME280;46462;32.608;-117.032;2023-01-16T00:34:41;99049.29;;;21.64;46.91
60646;BME280;46462;32.608;-117.032;2023-01-16T00:37:12;99052.88;;;21.60;46.92
60646;BME280;46462;32.608;-117.032;2023-01-16T00:39:42;99051.39;;;21.56;47.03
60646;BME280;46462;32.608;-117.032;2023-01-16T00:42:12;99053.17;;;21.55;47.01
60646;BME280;46462;32.608;-117.032;2023-01-16T00:44:42;99056.61;;;21.61;46.87
60646;BME280;46462;32.608;-117.032;2023-01-16T00:47:12;99053.45;;;21.60;46.95
60646;BME280;46462;32.608;-117.032;2023-01-16T00:49:42;99060.59;;;21.57;47.06
60646;BME280;46462;32.608;-117.032;2023-01-16T00:52:13;99071.23;;;21.57;47.14
60646;BME280;46462;32.608;-117.032;2023-01-16T00:54:43;99071.90;;;21.52;47.13
60646;BME280;46462;32.608;-117.032;2023-01-16T00:57:13;99075.45;;;21.54;47.10
60646;BME280;46462;32.608;-117.032;2023-01-16T00:59:43;99077.00;;;21.53;47.10
60646;BME280;46462;32.608;-117.032;2023-01-16T01:02:14;99079.90;;;21.58;46.84
60646;BME280;46462;32.608;-117.032;2023-01-16T01:04:44;99084.88;;;21.54;47.06
60646;BME280;46462;32.608;-117.032;2023-01-16T01:07:14;99088.08;;;21.54;47.08
60646;BME280;46462;32.608;-117.032;2023-01-16T01:09:44;99090.92;;;21.48;47.20
60646;BME280;46462;32.608;-117.032;2023-01-16T01:12:14;99097.40;;;21.48;47.23
60646;BME280;46462;32.608;-117.032;2023-01-16T01:14:45;99097.20;;;21.47;47.26
60646;BME280;46462;32.608;-117.032;2023-01-16T01:17:15;99100.42;;;21.51;47.21
60646;BME280;46462;32.608;-117.032;2023-01-16T01:19:45;99097.06;;;21.56;47.08
60646;BME280;46462;32.608;-117.032;2023-01-16T01:22:16;99093.52;;;21.56;47.06
60646;BME280;46462;32.608;-117.032;2023-01-16T01:24:48;99092.36;;;21.56;47.05
60646;BME280;46462;32.608;-117.032;2023-01-16T01:27:16;99086.68;;;21.58;47.04
60646;BME280;46462;32.608;-117.032;2023-01-16T01:29:46;99086.69;;;21.67;46.91
60646;BME280;46462;32.608;-117.032;2023-01-16T01:32:16;99090.74;;;21.72;46.80
60646;BME280;46462;32.608;-117.032;2023-01-16T01:34:46;99088.56;;;21.73;46.81
60646;BME280;46462;32.608;-117.032;2023-01-16T01:37:17;99081.41;;;21.71;46.88
60646;BME280;46462;32.608;-117.032;2023-01-16T01:39:47;99080.36;;;21.70;46.84
60646;BME280;46462;32.608;-117.032;2023-01-16T01:42:17;99075.03;;;21.63;46.96
60646;BME280;46462;32.608;-117.032;2023-01-16T01:44:52;99070.36;;;21.63;47.01
60646;BME280;46462;32.608;-117.032;2023-01-16T01:47:20;99069.15;;;21.64;46.91
60646;BME280;46462;32.608;-117.032;2023-01-16T01:49:48;99074.86;;;21.63;47.09
60646;BME280;46462;32.608;-117.032;2023-01-16T01:52:20;99077.62;;;21.67;47.05
60646;BME280;46462;32.608;-117.032;2023-01-16T01:54:52;99074.13;;;21.71;46.85
60646;BME280;46462;32.608;-117.032;2023-01-16T01:57:23;99076.49;;;21.67;46.98
60646;BME280;46462;32.608;-117.032;2023-01-16T01:59:54;99077.03;;;21.63;47.09
60646;BME280;46462;32.608;-117.032;2023-01-16T02:02:22;99075.92;;;21.66;47.04
60646;BME280;46462;32.608;-117.032;2023-01-16T02:04:50;99069.80;;;21.55;46.97
60646;BME280;46462;32.608;-117.032;2023-01-16T02:07:20;99071.78;;;21.51;47.16
60646;BME280;46462;32.608;-117.032;2023-01-16T02:09:51;99067.69;;;21.46;47.28
60646;BME280;46462;32.608;-117.032;2023-01-16T02:12:20;99064.61;;;21.38;47.44
60646;BME280;46462;32.608;-117.032;2023-01-16T02:14:51;99064.60;;;21.36;47.39
60646;BME280;46462;32.608;-117.032;2023-01-16T02:17:20;99065.55;;;21.37;47.49
60646;BME280;46462;32.608;-117.032;2023-01-16T02:19:54;99067.44;;;21.38;47.33
60646;BME280;46462;32.608;-117.032;2023-01-16T02:25:03;99082.43;;;21.36;47.58
60646;BME280;46462;32.608;-117.032;2023-01-16T02:27:32;99083.62;;;21.31;47.54
60646;BME280;46462;32.608;-117.032;2023-01-16T02:32:31;99091.81;;;21.23;47.89
60646;BME280;46462;32.608;-117.032;2023-01-16T02:35:05;99095.68;;;21.25;47.88
60646;BME280;46462;32.608;-117.032;2023-01-16T02:37:31;99100.67;;;21.21;47.89
60646;BME280;46462;32.608;-117.032;2023-01-16T02:40:00;99106.46;;;21.27;47.70
60646;BME280;46462;32.608;-117.032;2023-01-16T02:42:26;99112.86;;;21.31;47.60
60646;BME280;46462;32.608;-117.032;2023-01-16T02:44:59;99117.70;;;21.22;47.74
60646;BME280;46462;32.608;-117.032;2023-01-16T02:47:27;99116.37;;;21.24;47.71
60646;BME280;46462;32.608;-117.032;2023-01-16T02:50:02;99122.26;;;21.22;47.94
60646;BME280;46462;32.608;-117.032;2023-01-16T02:52:30;99125.81;;;21.25;47.72
60646;BME280;46462;32.608;-117.032;2023-01-16T02:54:59;99124.00;;;21.20;47.84
60646;BME280;46462;32.608;-117.032;2023-01-16T02:57:27;99118.90;;;21.25;47.52
60646;BME280;46462;32.608;-117.032;2023-01-16T02:59:54;99124.59;;;21.26;47.54
60646;BME280;46462;32.608;-117.032;2023-01-16T03:02:24;99122.33;;;21.29;47.68
60646;BME280;46462;32.608;-117.032;2023-01-16T03:04:54;99118.83;;;21.15;47.94
60646;BME280;46462;32.608;-117.032;2023-01-16T03:07:37;99113.66;;;21.18;47.96
60646;BME280;46462;32.608;-117.032;2023-01-16T03:10:04;99109.60;;;21.12;47.96
60646;BME280;46462;32.608;-117.032;2023-01-16T03:12:32;99097.05;;;21.09;47.87
60646;BME280;46462;32.608;-117.032;2023-01-16T03:15:03;99090.68;;;21.35;47.09
60646;BME280;46462;32.608;-117.032;2023-01-16T03:17:37;99090.57;;;21.29;47.25
60646;BME280;46462;32.608;-117.032;2023-01-16T03:20:09;99092.99;;;21.25;47.34
60646;BME280;46462;32.608;-117.032;2023-01-16T03:22:31;99100.11;;;21.33;47.24
60646;BME280;46462;32.608;-117.032;2023-01-16T03:25:07;99103.87;;;21.19;47.67
60646;BME280;46462;32.608;-117.032;2023-01-16T03:27:33;99105.67;;;21.28;47.37
60646;BME280;46462;32.608;-117.032;2023-01-16T03:29:59;99103.57;;;21.21;47.73
60646;BME280;46462;32.608;-117.032;2023-01-16T03:32:33;99104.47;;;21.18;47.71
60646;BME280;46462;32.608;-117.032;2023-01-16T03:35:00;99103.45;;;21.11;47.97
60646;BME280;46462;32.608;-117.032;2023-01-16T03:37:30;99093.64;;;21.17;47.74
60646;BME280;46462;32.608;-117.032;2023-01-16T03:40:00;99084.22;;;21.10;48.13
60646;BME280;46462;32.608;-117.032;2023-01-16T03:42:31;99080.12;;;21.23;47.51
60646;BME280;46462;32.608;-117.032;2023-01-16T03:45:01;99078.38;;;21.14;47.69
60646;BME280;46462;32.608;-117.032;2023-01-16T03:47:33;99077.24;;;21.17;47.65
60646;BME280;46462;32.608;-117.032;2023-01-16T03:50:01;99083.23;;;21.27;47.39
60646;BME280;46462;32.608;-117.032;2023-01-16T03:52:34;99082.73;;;21.22;47.49
60646;BME280;46462;32.608;-117.032;2023-01-16T03:55:05;99075.40;;;21.10;48.00
60646;BME280;46462;32.608;-117.032;2023-01-16T03:57:31;99066.24;;;21.07;48.15
60646;BME280;46462;32.608;-117.032;2023-01-16T04:00:00;99065.16;;;21.16;47.59
60646;BME280;46462;32.608;-117.032;2023-01-16T04:02:32;99068.61;;;21.12;47.78
60646;BME280;46462;32.608;-117.032;2023-01-16T04:05:03;99073.60;;;21.07;48.32
60646;BME280;46462;32.608;-117.032;2023-01-16T04:07:32;99076.10;;;21.09;47.94
60646;BME280;46462;32.608;-117.032;2023-01-16T04:10:02;99078.61;;;21.09;47.93
60646;BME280;46462;32.608;-117.032;2023-01-16T04:12:34;99077.79;;;21.05;48.31
60646;BME280;46462;32.608;-117.032;2023-01-16T04:15:02;99085.78;;;21.03;48.17
60646;BME280;46462;32.608;-117.032;2023-01-16T04:17:30;99098.43;;;21.04;48.21
60646;BME280;46462;32.608;-117.032;2023-01-16T04:20:00;99104.83;;;20.98;48.08
60646;BME280;46462;32.608;-117.032;2023-01-16T04:22:31;99097.54;;;21.01;47.89
60646;BME280;46462;32.608;-117.032;2023-01-16T04:25:03;99081.75;;;21.11;47.59
60646;BME280;46462;32.608;-117.032;2023-01-16T04:27:31;99063.07;;;21.21;47.41
60646;BME280;46462;32.608;-117.032;2023-01-16T04:30:01;99058.10;;;21.14;47.84
60646;BME280;46462;32.608;-117.032;2023-01-16T04:32:31;99061.69;;;21.10;47.95
60646;BME280;46462;32.608;-117.032;2023-01-16T04:35:01;99057.00;;;21.06;47.93
60646;BME280;46462;32.608;-117.032;2023-01-16T04:37:32;99052.35;;;21.07;47.84
60646;BME280;46462;32.608;-117.032;2023-01-16T04:40:02;99052.05;;;21.20;47.44
60646;BME280;46462;32.608;-117.032;2023-01-16T04:42:33;99053.84;;;21.12;47.69
60646;BME280;46462;32.608;-117.032;2023-01-16T04:45:02;99039.42;;;21.15;47.59
60646;BME280;46462;32.608;-117.032;2023-01-16T04:47:32;99033.85;;;21.07;48.06
60646;BME280;46462;32.608;-117.032;2023-01-16T04:50:08;99042.63;;;20.94;48.27
60646;BME280;46462;32.608;-117.032;2023-01-16T04:52:37;99038.74;;;20.97;48.37
60646;BME280;46462;32.608;-117.032;2023-01-16T04:55:08;99035.00;;;20.96;48.31
60646;BME280;46462;32.608;-117.032;2023-01-16T04:57:38;99029.98;;;21.00;48.16
60646;BME280;46462;32.608;-117.032;2023-01-16T05:00:12;99028.93;;;20.99;48.17
60646;BME280;46462;32.608;-117.032;2023-01-16T05:02:38;99032.20;;;21.00;48.20
60646;BME280;46462;32.608;-117.032;2023-01-16T05:05:09;99036.00;;;21.05;48.11
60646;BME280;46462;32.608;-117.032;2023-01-16T05:07:39;99036.66;;;20.98;48.02
60646;BME280;46462;32.608;-117.032;2023-01-16T05:10:10;99033.01;;;21.04;47.93
60646;BME280;46462;32.608;-117.032;2023-01-16T05:12:39;99038.56;;;21.06;47.83
60646;BME280;46462;32.608;-117.032;2023-01-16T05:15:10;99042.47;;;20.97;48.35
60646;BME280;46462;32.608;-117.032;2023-01-16T05:17:39;99043.41;;;20.95;48.63
60646;BME280;46462;32.608;-117.032;2023-01-16T05:20:10;99041.97;;;20.87;48.85
60646;BME280;46462;32.608;-117.032;2023-01-16T05:22:40;99035.10;;;20.86;48.70
60646;BME280;46462;32.608;-117.032;2023-01-16T05:25:10;99025.04;;;20.85;48.73
60646;BME280;46462;32.608;-117.032;2023-01-16T05:27:40;99020.91;;;20.85;48.58
60646;BME280;46462;32.608;-117.032;2023-01-16T05:30:12;99024.84;;;20.86;48.72
60646;BME280;46462;32.608;-117.032;2023-01-16T05:32:42;99034.79;;;20.82;48.76
60646;BME280;46462;32.608;-117.032;2023-01-16T05:35:11;99035.72;;;20.84;48.65
60646;BME280;46462;32.608;-117.032;2023-01-16T05:37:42;99036.18;;;20.87;48.81
60646;BME280;46462;32.608;-117.032;2023-01-16T05:40:12;99029.30;;;20.82;48.57
60646;BME280;46462;32.608;-117.032;2023-01-16T05:42:43;99029.65;;;20.83;48.69
60646;BME280;46462;32.608;-117.032;2023-01-16T05:45:12;99037.69;;;20.81;48.83
60646;BME280;46462;32.608;-117.032;2023-01-16T05:47:43;99045.95;;;20.83;48.73
60646;BME280;46462;32.608;-117.032;2023-01-16T05:50:12;99043.50;;;20.82;48.66
60646;BME280;46462;32.608;-117.032;2023-01-16T05:52:42;99037.87;;;20.79;48.87
60646;BME280;46462;32.608;-117.032;2023-01-16T05:55:13;99049.54;;;20.81;48.46
60646;BME280;46462;32.608;-117.032;2023-01-16T05:57:43;99067.49;;;20.92;48.43
60646;BME280;46462;32.608;-117.032;2023-01-16T06:02:43;99060.38;;;20.80;48.83
60646;BME280;46462;32.608;-117.032;2023-01-16T06:05:13;99058.50;;;20.73;48.74
60646;BME280;46462;32.608;-117.032;2023-01-16T06:07:44;99063.71;;;20.75;48.85
60646;BME280;46462;32.608;-117.032;2023-01-16T06:10:14;99056.00;;;20.73;49.00
60646;BME280;46462;32.608;-117.032;2023-01-16T06:12:44;99051.11;;;20.74;48.89
60646;BME280;46462;32.608;-117.032;2023-01-16T06:15:14;99051.62;;;20.70;48.93
60646;BME280;46462;32.608;-117.032;2023-01-16T06:17:45;99046.83;;;20.74;48.65
60646;BME280;46462;32.608;-117.032;2023-01-16T06:20:15;99039.80;;;20.75;48.99
60646;BME280;46462;32.608;-117.032;2023-01-16T06:22:45;99034.04;;;20.73;49.01
60646;BME280;46462;32.608;-117.032;2023-01-16T06:25:15;99024.39;;;20.70;48.97
60646;BME280;46462;32.608;-117.032;2023-01-16T06:27:48;99018.61;;;20.73;48.98
60646;BME280;46462;32.608;-117.032;2023-01-16T06:30:16;99006.42;;;20.69;49.03
60646;BME280;46462;32.608;-117.032;2023-01-16T06:32:48;98995.47;;;20.71;49.02
60646;BME280;46462;32.608;-117.032;2023-01-16T06:35:16;98985.16;;;20.70;48.98
60646;BME280;46462;32.608;-117.032;2023-01-16T06:37:46;98984.15;;;20.75;48.98
60646;BME280;46462;32.608;-117.032;2023-01-16T06:40:17;98993.04;;;20.72;48.96
60646;BME280;46462;32.608;-117.032;2023-01-16T06:42:47;98996.55;;;20.68;48.97
60646;BME280;46462;32.608;-117.032;2023-01-16T06:45:17;98993.52;;;20.68;49.11
60646;BME280;46462;32.608;-117.032;2023-01-16T06:47:51;98975.94;;;20.66;49.10
60646;BME280;46462;32.608;-117.032;2023-01-16T06:50:17;98972.94;;;20.66;49.13
60646;BME280;46462;32.608;-117.032;2023-01-16T06:52:48;98972.55;;;20.66;49.11
60646;BME280;46462;32.608;-117.032;2023-01-16T06:55:18;98961.64;;;20.65;49.24
60646;BME280;46462;32.608;-117.032;2023-01-16T06:57:48;98955.15;;;20.68;48.98
60646;BME280;46462;32.608;-117.032;2023-01-16T07:00:19;98959.57;;;20.66;49.13
60646;BME280;46462;32.608;-117.032;2023-01-16T07:02:52;98967.47;;;20.63;49.14
60646;BME280;46462;32.608;-117.032;2023-01-16T07:05:18;98967.89;;;20.67;49.02
60646;BME280;46462;32.608;-117.032;2023-01-16T07:07:49;98966.01;;;20.64;49.11
60646;BME280;46462;32.608;-117.032;2023-01-16T07:10:19;98969.44;;;20.60;49.11
60646;BME280;46462;32.608;-117.032;2023-01-16T07:12:50;98967.59;;;20.65;48.99
60646;BME280;46462;32.608;-117.032;2023-01-16T07:15:20;98963.45;;;20.56;49.29
60646;BME280;46462;32.608;-117.032;2023-01-16T07:17:50;98958.52;;;20.60;49.21
60646;BME280;46462;32.608;-117.032;2023-01-16T07:20:20;98958.75;;;20.59;49.10
60646;BME280;46462;32.608;-117.032;2023-01-16T07:22:50;98956.92;;;20.59;49.23
60646;BME280;46462;32.608;-117.032;2023-01-16T07:25:23;98965.40;;;20.54;49.35
60646;BME280;46462;32.608;-117.032;2023-01-16T07:27:51;98969.08;;;20.59;49.16
60646;BME280;46462;32.608;-117.032;2023-01-16T07:30:22;98970.62;;;20.58;49.13
60646;BME280;46462;32.608;-117.032;2023-01-16T07:32:51;98960.83;;;20.61;49.09
60646;BME280;46462;32.608;-117.032;2023-01-16T07:35:21;98963.40;;;20.58;49.29
60646;BME280;46462;32.608;-117.032;2023-01-16T07:37:52;98951.46;;;20.59;49.25
60646;BME280;46462;32.608;-117.032;2023-01-16T07:40:21;98960.40;;;20.56;49.28
60646;BME280;46462;32.608;-117.032;2023-01-16T07:42:52;98954.99;;;20.59;49.22
60646;BME280;46462;32.608;-117.032;2023-01-16T07:45:22;98933.16;;;20.56;49.37
60646;BME280;46462;32.608;-117.032;2023-01-16T07:47:52;98930.69;;;20.54;49.44
60646;BME280;46462;32.608;-117.032;2023-01-16T07:50:22;98955.80;;;20.52;49.50
60646;BME280;46462;32.608;-117.032;2023-01-16T07:52:53;98963.26;;;20.53;49.43
60646;BME280;46462;32.608;-117.032;2023-01-16T07:55:23;98923.07;;;20.53;49.49
60646;BME280;46462;32.608;-117.032;2023-01-16T07:57:53;98903.42;;;20.56;49.39
60646;BME280;46462;32.608;-117.032;2023-01-16T08:00:23;98906.81;;;20.53;49.70
60646;BME280;46462;32.608;-117.032;2023-01-16T08:02:53;98909.50;;;20.52;49.67
60646;BME280;46462;32.608;-117.032;2023-01-16T08:05:23;98904.14;;;20.51;49.68
60646;BME280;46462;32.608;-117.032;2023-01-16T08:07:54;98894.67;;;20.50;49.72
60646;BME280;46462;32.608;-117.032;2023-01-16T08:10:24;98882.81;;;20.51;49.80
60646;BME280;46462;32.608;-117.032;2023-01-16T08:12:54;98867.75;;;20.49;50.01
60646;BME280;46462;32.608;-117.032;2023-01-16T08:15:24;98856.64;;;20.48;50.06
60646;BME280;46462;32.608;-117.032;2023-01-16T08:17:54;98849.90;;;20.52;49.83
60646;BME280;46462;32.608;-117.032;2023-01-16T08:20:25;98857.29;;;20.53;49.69
60646;BME280;46462;32.608;-117.032;2023-01-16T08:22:55;98866.16;;;20.55;49.62
60646;BME280;46462;32.608;-117.032;2023-01-16T08:25:25;98874.54;;;20.55;49.64
60646;BME280;46462;32.608;-117.032;2023-01-16T08:27:55;98875.70;;;20.53;49.71
60646;BME280;46462;32.608;-117.032;2023-01-16T08:30:26;98875.25;;;20.51;49.69
60646;BME280;46462;32.608;-117.032;2023-01-16T08:32:58;98859.93;;;20.51;49.77
60646;BME280;46462;32.608;-117.032;2023-01-16T08:35:26;98873.74;;;20.50;49.78
60646;BME280;46462;32.608;-117.032;2023-01-16T08:37:56;98880.84;;;20.48;49.95
60646;BME280;46462;32.608;-117.032;2023-01-16T08:40:26;98882.18;;;20.45;50.01
60646;BME280;46462;32.608;-117.032;2023-01-16T08:42:57;98876.09;;;20.43;50.19
60646;BME280;46462;32.608;-117.032;2023-01-16T08:45:27;98879.25;;;20.44;50.21
60646;BME280;46462;32.608;-117.032;2023-01-16T08:47:58;98884.74;;;20.42;50.39
60646;BME280;46462;32.608;-117.032;2023-01-16T08:50:27;98889.57;;;20.45;50.42
60646;BME280;46462;32.608;-117.032;2023-01-16T08:52:58;98890.22;;;20.47;50.35
60646;BME280;46462;32.608;-117.032;2023-01-16T08:55:28;98891.79;;;20.45;50.40
60646;BME280;46462;32.608;-117.032;2023-01-16T08:57:58;98891.51;;;20.47;50.03
60646;BME280;46462;32.608;-117.032;2023-01-16T09:00:29;98896.80;;;20.47;50.24
60646;BME280;46462;32.608;-117.032;2023-01-16T09:02:58;98896.15;;;20.46;50.21
60646;BME280;46462;32.608;-117.032;2023-01-16T09:05:29;98887.68;;;20.46;50.31
60646;BME280;46462;32.608;-117.032;2023-01-16T09:07:59;98880.96;;;20.44;50.16
60646;BME280;46462;32.608;-117.032;2023-01-16T09:10:29;98865.34;;;20.43;50.30
60646;BME280;46462;32.608;-117.032;2023-01-16T09:12:59;98860.68;;;20.45;50.26
60646;BME280;46462;32.608;-117.032;2023-01-16T09:15:29;98858.41;;;20.43;50.41
60646;BME280;46462;32.608;-117.032;2023-01-16T09:18:00;98858.30;;;20.43;50.19
60646;BME280;46462;32.608;-117.032;2023-01-16T09:20:30;98878.26;;;20.45;50.15
60646;BME280;46462;32.608;-117.032;2023-01-16T09:23:01;98884.58;;;20.49;50.02
60646;BME280;46462;32.608;-117.032;2023-01-16T09:25:31;98883.53;;;20.43;49.98
60646;BME280;46462;32.608;-117.032;2023-01-16T09:28:01;98885.24;;;20.41;50.23
60646;BME280;46462;32.608;-117.032;2023-01-16T09:30:31;98889.01;;;20.35;50.13
60646;BME280;46462;32.608;-117.032;2023-01-16T09:33:01;98882.93;;;20.36;50.18
60646;BME280;46462;32.608;-117.032;2023-01-16T09:35:31;98886.09;;;20.33;50.14
60646;BME280;46462;32.608;-117.032;2023-01-16T09:38:01;98880.65;;;20.32;50.13
60646;BME280;46462;32.608;-117.032;2023-01-16T09:40:32;98893.46;;;20.38;50.06
60646;BME280;46462;32.608;-117.032;2023-01-16T09:43:14;98892.35;;;20.37;50.15
60646;BME280;46462;32.608;-117.032;2023-01-16T09:45:33;98891.64;;;20.34;49.95
60646;BME280;46462;32.608;-117.032;2023-01-16T09:48:07;98881.17;;;20.38;50.13
60646;BME280;46462;32.608;-117.032;2023-01-16T09:50:36;98869.58;;;20.37;50.37
60646;BME280;46462;32.608;-117.032;2023-01-16T09:53:04;98863.16;;;20.33;50.42
60646;BME280;46462;32.608;-117.032;2023-01-16T09:55:38;98855.38;;;20.30;50.69
60646;BME280;46462;32.608;-117.032;2023-01-16T09:58:04;98846.27;;;20.30;50.48
60646;BME280;46462;32.608;-117.032;2023-01-16T10:00:35;98837.54;;;20.28;50.56
60646;BME280;46462;32.608;-117.032;2023-01-16T10:03:03;98823.50;;;20.41;50.28
60646;BME280;46462;32.608;-117.032;2023-01-16T10:05:38;98802.60;;;20.37;50.22
60646;BME280;46462;32.608;-117.032;2023-01-16T10:08:08;98790.76;;;20.37;50.20
60646;BME280;46462;32.608;-117.032;2023-01-16T10:10:41;98793.67;;;20.36;50.17
60646;BME280;46462;32.608;-117.032;2023-01-16T10:13:14;98796.46;;;20.33;50.32
60646;BME280;46462;32.608;-117.032;2023-01-16T10:15:39;98797.08;;;20.32;50.17
60646;BME280;46462;32.608;-117.032;2023-01-16T10:18:15;98783.45;;;20.28;50.28
60646;BME280;46462;32.608;-117.032;2023-01-16T10:20:44;98772.95;;;20.28;50.40
60646;BME280;46462;32.608;-117.032;2023-01-16T10:23:16;98761.64;;;20.31;50.33
60646;BME280;46462;32.608;-117.032;2023-01-16T10:25:42;98760.40;;;20.31;50.21
60646;BME280;46462;32.608;-117.032;2023-01-16T10:28:15;98760.53;;;20.33;50.25
60646;BME280;46462;32.608;-117.032;2023-01-16T10:30:38;98749.30;;;20.27;50.46
60646;BME280;46462;32.608;-117.032;2023-01-16T10:33:11;98746.30;;;20.26;50.33
60646;BME280;46462;32.608;-117.032;2023-01-16T10:35:38;98758.89;;;20.30;50.35
60646;BME280;46462;32.608;-117.032;2023-01-16T10:38:15;98757.20;;;20.22;50.49
60646;BME280;46462;32.608;-117.032;2023-01-16T10:40:37;98755.71;;;20.25;50.55
60646;BME280;46462;32.608;-117.032;2023-01-16T10:43:13;98748.81;;;20.26;50.56
60646;BME280;46462;32.608;-117.032;2023-01-16T10:45:37;98748.72;;;20.26;50.58
60646;BME280;46462;32.608;-117.032;2023-01-16T10:48:10;98743.44;;;20.27;50.65
60646;BME280;46462;32.608;-117.032;2023-01-16T10:50:38;98740.59;;;20.28;50.85
60646;BME280;46462;32.608;-117.032;2023-01-16T10:53:09;98731.97;;;20.30;50.70
60646;BME280;46462;32.608;-117.032;2023-01-16T10:55:41;98719.88;;;20.33;50.57
60646;BME280;46462;32.608;-117.032;2023-01-16T10:58:19;98701.85;;;20.32;50.66
60646;BME280;46462;32.608;-117.032;2023-01-16T11:00:41;98696.29;;;20.35;50.63
60646;BME280;46462;32.608;-117.032;2023-01-16T11:03:12;98692.39;;;20.40;50.51
60646;BME280;46462;32.608;-117.032;2023-01-16T11:05:39;98691.82;;;20.36;50.60
60646;BME280;46462;32.608;-117.032;2023-01-16T11:08:12;98706.36;;;20.39;50.60
60646;BME280;46462;32.608;-117.032;2023-01-16T11:10:40;98698.21;;;20.44;50.37
60646;BME280;46462;32.608;-117.032;2023-01-16T11:13:15;98693.40;;;20.42;50.48
60646;BME280;46462;32.608;-117.032;2023-01-16T11:15:39;98689.10;;;20.36;50.69
60646;BME280;46462;32.608;-117.032;2023-01-16T11:20:41;98677.98;;;20.39;50.51
60646;BME280;46462;32.608;-117.032;2023-01-16T11:23:17;98672.95;;;20.41;50.40
60646;BME280;46462;32.608;-117.032;2023-01-16T11:25:40;98663.66;;;20.37;50.45
60646;BME280;46462;32.608;-117.032;2023-01-16T11:28:16;98659.08;;;20.38;50.52
60646;BME280;46462;32.608;-117.032;2023-01-16T11:30:43;98651.76;;;20.33;50.59
60646;BME280;46462;32.608;-117.032;2023-01-16T11:33:15;98643.09;;;20.34;50.50
60646;BME280;46462;32.608;-117.032;2023-01-16T11:35:49;98637.79;;;20.23;50.74
60646;BME280;46462;32.608;-117.032;2023-01-16T11:38:13;98615.57;;;20.24;50.85
60646;BME280;46462;32.608;-117.032;2023-01-16T11:40:46;98600.56;;;20.20;50.72
60646;BME280;46462;32.608;-117.032;2023-01-16T11:43:14;98606.41;;;20.20;50.82
60646;BME280;46462;32.608;-117.032;2023-01-16T11:45:44;98617.09;;;20.29;50.55
60646;BME280;46462;32.608;-117.032;2023-01-16T11:48:14;98603.63;;;20.17;50.87
60646;BME280;46462;32.608;-117.032;2023-01-16T11:50:47;98589.15;;;20.16;50.87
60646;BME280;46462;32.608;-117.032;2023-01-16T11:53:12;98597.71;;;20.11;51.03
60646;BME280;46462;32.608;-117.032;2023-01-16T11:55:54;98608.60;;;20.15;50.90
60646;BME280;46462;32.608;-117.032;2023-01-16T11:58:18;98604.85;;;20.17;51.00
60646;BME280;46462;32.608;-117.032;2023-01-16T12:00:50;98608.29;;;20.13;51.18
60646;BME280;46462;32.608;-117.032;2023-01-16T12:05:52;98614.06;;;20.15;51.21
60646;BME280;46462;32.608;-117.032;2023-01-16T12:08:23;98624.02;;;20.14;51.11
60646;BME280;46462;32.608;-117.032;2023-01-16T12:10:50;98631.77;;;20.14;51.08
60646;BME280;46462;32.608;-117.032;2023-01-16T12:13:15;98628.46;;;20.24;50.82
60646;BME280;46462;32.608;-117.032;2023-01-16T12:15:52;98623.88;;;20.20;50.86
60646;BME280;46462;32.608;-117.032;2023-01-16T12:18:21;98609.31;;;20.28;50.78
60646;BME280;46462;32.608;-117.032;2023-01-16T12:20:51;98609.70;;;20.20;50.92
60646;BME280;46462;32.608;-117.032;2023-01-16T12:23:28;98617.00;;;20.18;50.93
60646;BME280;46462;32.608;-117.032;2023-01-16T12:25:52;98622.12;;;20.15;51.14
60646;BME280;46462;32.608;-117.032;2023-01-16T12:28:24;98613.40;;;20.20;51.12
60646;BME280;46462;32.608;-117.032;2023-01-16T12:30:58;98614.78;;;20.18;51.11
60646;BME280;46462;32.608;-117.032;2023-01-16T12:33:21;98608.05;;;20.17;51.04
60646;BME280;46462;32.608;-117.032;2023-01-16T12:35:52;98605.60;;;20.17;51.14
60646;BME280;46462;32.608;-117.032;2023-01-16T12:38:18;98619.71;;;20.15;51.25
60646;BME280;46462;32.608;-117.032;2023-01-16T12:43:25;98652.97;;;20.12;51.46
60646;BME280;46462;32.608;-117.032;2023-01-16T12:45:50;98648.23;;;20.18;51.40
60646;BME280;46462;32.608;-117.032;2023-01-16T12:48:30;98645.53;;;20.15;51.52
60646;BME280;46462;32.608;-117.032;2023-01-16T12:50:58;98648.14;;;20.10;51.71
60646;BME280;46462;32.608;-117.032;2023-01-16T12:53:27;98653.68;;;20.15;51.74
60646;BME280;46462;32.608;-117.032;2023-01-16T12:55:54;98666.12;;;20.08;51.95
60646;BME280;46462;32.608;-117.032;2023-01-16T12:58:19;98634.25;;;20.16;51.66
60646;BME280;46462;32.608;-117.032;2023-01-16T13:01:01;98657.83;;;20.14;51.68